createdAt,value
2019-02-20T00:02:04.573Z,72.86
2019-02-20T00:04:31.115Z,73.29
2019-02-20T00:06:57.672Z,73.28
2019-02-20T00:09:25.164Z,73.28
2019-02-20T00:11:51.888Z,73.30
2019-02-20T00:14:18.435Z,73.37
2019-02-20T00:16:45.002Z,73.37
2019-02-20T00:19:11.548Z,73.89
2019-02-20T00:21:51.495Z,73.76
2019-02-20T00:24:18.069Z,73.76
2019-02-20T00:26:44.646Z,73.45
2019-02-20T00:29:11.198Z,73.24
2019-02-20T00:31:37.760Z,73.24
2019-02-20T00:34:04.323Z,72.77
2019-02-20T00:36:30.896Z,72.88
2019-02-20T00:38:57.445Z,72.75
2019-02-20T00:41:24.015Z,72.77
2019-02-20T00:44:06.728Z,72.98
2019-02-20T00:46:38.609Z,72.88
2019-02-20T00:49:17.559Z,72.87
2019-02-20T00:51:58.504Z,72.87
2019-02-20T00:54:25.103Z,73.02
2019-02-20T00:56:51.662Z,73.18
2019-02-20T00:59:18.209Z,72.99
2019-02-20T01:01:44.767Z,73.68
2019-02-20T01:04:11.312Z,73.79
2019-02-20T01:06:37.896Z,74.07
2019-02-20T01:09:05.575Z,73.85
2019-02-20T01:11:32.116Z,73.73
2019-02-20T01:13:58.704Z,73.52
2019-02-20T01:16:25.270Z,73.55
2019-02-20T01:18:51.817Z,73.98
2019-02-20T01:21:18.422Z,74.05
2019-02-20T01:23:44.976Z,74.05
2019-02-20T01:26:11.521Z,73.86
2019-02-20T01:28:38.099Z,73.83
2019-02-20T01:31:04.641Z,74.44
2019-02-20T01:33:31.218Z,73.64
2019-02-20T01:35:57.770Z,73.64
2019-02-20T01:38:24.339Z,73.98
2019-02-20T01:40:50.895Z,73.80
2019-02-20T01:43:17.457Z,73.66
2019-02-20T01:45:44.009Z,73.74
2019-02-20T01:48:10.586Z,73.94
2019-02-20T01:50:37.142Z,73.49
2019-02-20T01:53:10.111Z,73.77
2019-02-20T01:55:32.150Z,74.09
2019-02-20T01:57:58.739Z,74.09
2019-02-20T02:00:25.287Z,73.72
2019-02-20T02:02:51.856Z,73.72
2019-02-20T02:05:18.414Z,74.40
2019-02-20T02:07:44.998Z,74.39
2019-02-20T02:10:11.549Z,73.95
2019-02-20T02:12:38.117Z,73.72
2019-02-20T02:15:05.730Z,73.57
2019-02-20T02:17:32.475Z,73.63
2019-02-20T02:19:59.034Z,74.20
2019-02-20T02:22:25.687Z,74.47
2019-02-20T02:25:11.866Z,74.35
2019-02-20T02:27:38.456Z,74.37
2019-02-20T02:30:05.476Z,73.85
2019-02-20T02:32:32.024Z,74.23
2019-02-20T02:34:58.575Z,74.47
2019-02-20T02:37:25.106Z,74.70
2019-02-20T02:39:51.667Z,75.10
2019-02-20T02:42:18.219Z,74.78
2019-02-20T02:44:44.780Z,74.98
2019-02-20T02:47:11.326Z,74.69
2019-02-20T02:49:37.894Z,74.61
2019-02-20T02:52:04.460Z,74.52
2019-02-20T02:54:31.049Z,74.73
2019-02-20T02:56:57.602Z,74.76
2019-02-20T02:59:24.169Z,74.78
2019-02-20T03:01:50.739Z,75.04
2019-02-20T03:04:17.319Z,74.74
2019-02-20T03:06:43.870Z,74.23
2019-02-20T03:09:10.437Z,74.80
2019-02-20T03:11:36.983Z,74.80
2019-02-20T03:14:03.548Z,74.80
2019-02-20T03:16:30.091Z,75.02
2019-02-20T03:18:56.655Z,74.72
2019-02-20T03:21:23.193Z,74.26
2019-02-20T03:23:49.797Z,74.45
2019-02-20T03:26:16.359Z,74.45
2019-02-20T03:28:42.924Z,74.16
2019-02-20T03:31:09.472Z,74.38
2019-02-20T03:33:36.029Z,74.31
2019-02-20T03:36:02.601Z,74.06
2019-02-20T03:38:30.608Z,74.30
2019-02-20T03:40:57.413Z,74.46
2019-02-20T03:43:23.988Z,74.25
2019-02-20T03:45:50.531Z,74.67
2019-02-20T03:48:17.073Z,74.48
2019-02-20T03:50:43.650Z,74.39
2019-02-20T03:53:10.231Z,74.39
2019-02-20T03:55:36.779Z,74.27
2019-02-20T03:58:03.431Z,74.19
2019-02-20T04:00:30.014Z,74.25
2019-02-20T04:02:56.584Z,74.50
2019-02-20T04:05:23.209Z,74.71
2019-02-20T04:07:49.752Z,74.60
2019-02-20T04:10:16.398Z,74.29
2019-02-20T04:12:42.998Z,74.46
2019-02-20T04:15:09.566Z,74.92
2019-02-20T04:17:36.126Z,74.37
2019-02-20T04:20:03.724Z,74.42
2019-02-20T04:22:30.285Z,74.64
2019-02-20T04:24:56.855Z,74.80
2019-02-20T04:27:23.400Z,75.02
2019-02-20T04:29:50.328Z,75.90
2019-02-20T04:32:16.905Z,75.24
2019-02-20T04:34:43.479Z,75.13
2019-02-20T04:37:10.030Z,75.73
2019-02-20T04:39:36.618Z,75.56
2019-02-20T04:42:03.158Z,75.38
2019-02-20T04:44:30.079Z,75.25
2019-02-20T04:46:56.630Z,75.41
2019-02-20T04:49:23.214Z,75.65
2019-02-20T04:51:49.774Z,75.40
2019-02-20T04:54:16.325Z,75.04
2019-02-20T04:56:42.878Z,75.11
2019-02-20T04:59:09.454Z,74.96
2019-02-20T05:01:36.014Z,75.42
2019-02-20T05:04:02.604Z,75.19
2019-02-20T05:06:29.174Z,75.19
2019-02-20T05:08:55.713Z,75.35
2019-02-20T05:11:22.273Z,75.63
2019-02-20T05:13:48.832Z,75.07
2019-02-20T05:16:15.413Z,75.07
2019-02-20T05:18:41.984Z,75.20
2019-02-20T05:21:08.535Z,75.20
2019-02-20T05:23:35.132Z,76.08
2019-02-20T05:26:01.667Z,76.17
2019-02-20T05:28:28.228Z,75.73
2019-02-20T05:30:54.803Z,75.93
2019-02-20T05:33:21.343Z,75.58
2019-02-20T05:35:47.904Z,75.59
2019-02-20T05:38:14.469Z,75.40
2019-02-20T05:40:41.041Z,75.32
2019-02-20T05:43:07.599Z,75.77
2019-02-20T05:45:34.165Z,75.44
2019-02-20T05:48:00.741Z,75.83
2019-02-20T05:50:27.822Z,76.12
2019-02-20T05:52:54.389Z,75.76
2019-02-20T05:55:20.952Z,75.55
2019-02-20T05:57:47.506Z,75.32
2019-02-20T06:00:14.273Z,75.03
2019-02-20T06:02:40.849Z,75.36
2019-02-20T06:05:07.413Z,75.36
2019-02-20T06:07:33.962Z,75.45
2019-02-20T06:10:00.563Z,75.47
2019-02-20T06:12:27.132Z,75.84
2019-02-20T06:14:53.708Z,76.24
2019-02-20T06:17:20.267Z,76.32
2019-02-20T06:19:46.812Z,76.19
2019-02-20T06:22:13.396Z,75.84
2019-02-20T06:24:44.143Z,75.52
2019-02-20T06:27:08.415Z,76.02
2019-02-20T06:29:34.981Z,76.18
2019-02-20T06:32:01.546Z,76.18
2019-02-20T06:34:28.106Z,76.32
2019-02-20T06:36:54.690Z,76.32
2019-02-20T06:39:21.263Z,76.02
2019-02-20T06:41:47.819Z,76.11
2019-02-20T06:44:14.400Z,75.85
2019-02-20T06:46:40.959Z,76.27
2019-02-20T06:49:07.506Z,76.42
2019-02-20T06:51:34.077Z,76.10
2019-02-20T06:54:00.627Z,76.26
2019-02-20T06:56:27.199Z,76.31
2019-02-20T06:58:53.750Z,75.97
2019-02-20T07:01:20.418Z,76.40
2019-02-20T07:03:46.965Z,76.40
2019-02-20T07:06:21.428Z,76.00
2019-02-20T07:09:45.829Z,75.70
2019-02-20T07:12:51.713Z,75.96
2019-02-20T07:15:34.054Z,76.17
2019-02-20T07:18:38.469Z,75.53
2019-02-20T07:21:33.340Z,75.53
2019-02-20T07:24:31.894Z,74.96
2019-02-20T07:27:42.475Z,74.96
2019-02-20T07:30:09.265Z,74.60
2019-02-20T07:32:35.845Z,74.29
2019-02-20T07:35:02.420Z,74.56
2019-02-20T07:37:28.979Z,74.42
2019-02-20T07:39:57.300Z,74.52
2019-02-20T07:42:23.989Z,73.59
2019-02-20T07:44:50.536Z,72.64
2019-02-20T07:47:17.102Z,72.84
2019-02-20T07:49:43.666Z,72.57
2019-02-20T07:52:10.245Z,72.49
2019-02-20T07:54:36.792Z,72.64
2019-02-20T07:57:03.445Z,72.29
2019-02-20T07:59:29.956Z,72.05
2019-02-20T08:01:56.546Z,71.49
2019-02-20T08:04:23.072Z,70.99
2019-02-20T08:06:49.603Z,70.84
2019-02-20T08:09:16.166Z,70.16
2019-02-20T08:11:42.702Z,69.49
2019-02-20T08:14:09.864Z,68.99
2019-02-20T08:16:36.397Z,68.68
2019-02-20T08:19:02.964Z,69.87
2019-02-20T08:21:29.494Z,69.41
2019-02-20T08:23:56.074Z,68.41
2019-02-20T08:26:22.602Z,68.14
2019-02-20T08:28:49.174Z,67.23
2019-02-20T08:31:15.702Z,68.31
2019-02-20T08:33:42.266Z,67.02
2019-02-20T08:36:08.816Z,67.36
2019-02-20T08:38:35.372Z,67.89
2019-02-20T08:41:01.906Z,66.87
2019-02-20T08:43:28.753Z,67.27
2019-02-20T08:45:55.287Z,66.82
2019-02-20T08:48:21.840Z,66.57
2019-02-20T08:50:48.383Z,66.80
2019-02-20T08:53:14.930Z,65.68
2019-02-20T08:55:41.469Z,64.85
2019-02-20T08:58:08.028Z,65.57
2019-02-20T09:00:34.564Z,65.34
2019-02-20T09:03:01.120Z,65.98
2019-02-20T09:05:27.671Z,66.19
2019-02-20T09:07:54.227Z,65.72
2019-02-20T09:10:20.757Z,65.87
2019-02-20T09:12:47.298Z,65.75
2019-02-20T09:15:13.864Z,65.07
2019-02-20T09:17:40.394Z,64.50
2019-02-20T09:20:07.695Z,63.69
2019-02-20T09:22:34.267Z,64.33
2019-02-20T09:25:00.832Z,63.95
2019-02-20T09:27:27.404Z,62.66
2019-02-20T09:29:53.928Z,62.50
2019-02-20T09:32:20.451Z,62.41
2019-02-20T09:34:47.002Z,62.48
2019-02-20T09:37:13.540Z,62.50
2019-02-20T09:39:40.090Z,62.47
2019-02-20T09:42:14.605Z,61.29
2019-02-20T09:44:45.705Z,61.46
2019-02-20T09:47:12.230Z,62.27
2019-02-20T09:49:38.777Z,62.50
2019-02-20T09:52:05.305Z,62.86
2019-02-20T09:54:31.866Z,63.41
2019-02-20T09:56:58.393Z,62.04
2019-02-20T09:59:24.937Z,61.49
2019-02-20T10:01:51.478Z,61.03
2019-02-20T10:04:18.043Z,60.41
2019-02-20T10:06:44.815Z,59.51
2019-02-20T10:09:11.383Z,57.39
2019-02-20T10:11:37.907Z,56.43
2019-02-20T10:14:04.438Z,56.83
2019-02-20T10:16:31.002Z,56.62
2019-02-20T10:18:57.537Z,55.46
2019-02-20T10:21:24.095Z,55.02
2019-02-20T10:23:50.660Z,54.15
2019-02-20T10:26:17.347Z,52.71
2019-02-20T10:28:43.870Z,53.37
2019-02-20T10:31:10.435Z,53.27
2019-02-20T10:33:37.568Z,53.05
2019-02-20T10:36:04.128Z,53.93
2019-02-20T10:38:30.667Z,52.77
2019-02-20T10:40:57.222Z,53.30
2019-02-20T10:43:23.766Z,53.17
2019-02-20T10:45:50.320Z,51.31
2019-02-20T10:48:16.859Z,50.15
2019-02-20T10:50:43.426Z,51.65
2019-02-20T10:53:09.957Z,51.13
2019-02-20T10:55:36.527Z,49.46
2019-02-20T10:58:03.072Z,47.99
2019-02-20T11:00:30.050Z,46.71
2019-02-20T11:02:56.610Z,45.27
2019-02-20T11:05:23.168Z,44.41
2019-02-20T11:07:49.716Z,45.18
2019-02-20T11:10:16.265Z,43.73
2019-02-20T11:12:42.813Z,44.81
2019-02-20T11:15:09.373Z,45.42
2019-02-20T11:17:37.216Z,45.12
2019-02-20T11:20:04.463Z,46.87
2019-02-20T11:22:32.098Z,44.86
2019-02-20T11:24:58.783Z,45.18
2019-02-20T11:27:25.351Z,46.33
2019-02-20T11:29:51.886Z,47.10
2019-02-20T11:32:18.448Z,47.94
2019-02-20T11:34:44.998Z,47.31
2019-02-20T11:37:11.569Z,49.23
2019-02-20T11:39:38.144Z,48.41
2019-02-20T11:42:04.668Z,47.87
2019-02-20T11:44:31.215Z,48.26
2019-02-20T11:46:57.770Z,48.97
2019-02-20T11:49:24.311Z,49.23
2019-02-20T11:51:50.873Z,49.58
2019-02-20T11:54:17.409Z,49.19
2019-02-20T11:56:43.976Z,48.48
2019-02-20T11:59:10.530Z,49.05
2019-02-20T12:01:37.095Z,49.04
2019-02-20T12:04:03.638Z,49.17
2019-02-20T12:06:30.205Z,48.50
2019-02-20T12:08:56.750Z,48.10
2019-02-20T12:11:23.280Z,47.06
2019-02-20T12:13:49.837Z,48.83
2019-02-20T12:16:16.412Z,45.19
2019-02-20T12:18:42.996Z,42.64
2019-02-20T12:21:09.532Z,41.59
2019-02-20T12:23:36.857Z,42.50
2019-02-20T12:26:03.687Z,43.04
2019-02-20T12:28:30.242Z,43.03
2019-02-20T12:30:56.784Z,43.99
2019-02-20T12:33:23.354Z,42.01
2019-02-20T12:35:49.900Z,43.54
2019-02-20T12:38:16.464Z,43.70
2019-02-20T12:40:43.070Z,45.65
2019-02-20T12:43:09.611Z,46.67
2019-02-20T12:45:36.160Z,46.40
2019-02-20T12:48:02.729Z,47.10
2019-02-20T12:50:29.288Z,45.75
2019-02-20T12:52:55.857Z,45.08
2019-02-20T12:55:22.402Z,45.71
2019-02-20T12:57:48.975Z,46.33
2019-02-20T13:00:16.237Z,47.55
2019-02-20T13:02:42.796Z,48.17
2019-02-20T13:05:09.397Z,48.84
2019-02-20T13:07:35.952Z,48.34
2019-02-20T13:10:02.519Z,48.83
2019-02-20T13:12:30.459Z,48.69
2019-02-20T13:14:57.131Z,48.65
2019-02-20T13:17:23.687Z,48.35
2019-02-20T13:19:50.227Z,49.39
2019-02-20T13:22:16.903Z,49.00
2019-02-20T13:24:43.975Z,48.45
2019-02-20T13:27:10.720Z,46.96
2019-02-20T13:29:37.278Z,47.81
2019-02-20T13:32:03.841Z,48.17
2019-02-20T13:34:30.413Z,47.99
2019-02-20T13:36:56.985Z,48.10
2019-02-20T13:39:23.528Z,47.71
2019-02-20T13:41:50.092Z,49.83
2019-02-20T13:44:16.634Z,50.23
2019-02-20T13:46:43.172Z,50.91
2019-02-20T13:49:10.126Z,51.05
2019-02-20T13:51:36.670Z,50.97
2019-02-20T13:54:03.219Z,51.29
2019-02-20T13:56:29.769Z,51.40
2019-02-20T13:58:56.323Z,51.94
2019-02-20T14:01:22.868Z,51.45
2019-02-20T14:03:49.520Z,51.24
2019-02-20T14:06:16.057Z,51.01
2019-02-20T14:08:42.652Z,51.09
2019-02-20T14:11:09.353Z,51.37
2019-02-20T14:13:35.922Z,51.46
2019-02-20T14:16:02.463Z,51.31
2019-02-20T14:18:29.025Z,50.48
2019-02-20T14:20:55.568Z,49.61
2019-02-20T14:23:22.154Z,49.87
2019-02-20T14:25:48.732Z,50.02
2019-02-20T14:28:15.273Z,49.66
2019-02-20T14:30:42.131Z,49.32
2019-02-20T14:33:08.670Z,51.19
2019-02-20T14:35:35.229Z,50.19
2019-02-20T14:38:01.769Z,49.87
2019-02-20T14:40:28.325Z,49.30
2019-02-20T14:42:54.859Z,49.77
2019-02-20T14:45:21.416Z,52.39
2019-02-20T14:47:47.953Z,52.62
2019-02-20T14:50:15.031Z,52.42
2019-02-20T14:52:41.560Z,51.63
2019-02-20T14:55:08.144Z,51.23
2019-02-20T14:57:34.679Z,50.80
2019-02-20T15:00:01.234Z,51.70
2019-02-20T15:02:27.773Z,52.53
2019-02-20T15:04:54.333Z,52.78
2019-02-20T15:07:20.864Z,52.84
2019-02-20T15:09:47.420Z,52.75
2019-02-20T15:12:14.172Z,52.44
2019-02-20T15:14:40.728Z,52.07
2019-02-20T15:17:07.955Z,52.68
2019-02-20T15:19:34.617Z,51.97
2019-02-20T15:22:01.195Z,52.31
2019-02-20T15:24:27.741Z,51.72
2019-02-20T15:26:54.282Z,51.40
2019-02-20T15:29:20.851Z,52.27
2019-02-20T15:31:47.797Z,52.11
2019-02-20T15:34:14.350Z,52.22
2019-02-20T15:36:40.930Z,52.24
2019-02-20T15:39:07.684Z,52.23
2019-02-20T15:41:34.225Z,52.94
2019-02-20T15:44:00.886Z,53.06
2019-02-20T15:46:27.436Z,53.20
2019-02-20T15:48:53.997Z,53.45
2019-02-20T15:51:20.853Z,52.98
2019-02-20T15:53:47.379Z,53.35
2019-02-20T15:56:13.928Z,53.88
2019-02-20T15:58:40.458Z,53.47
2019-02-20T16:01:08.155Z,54.04
2019-02-20T16:03:34.717Z,53.97
2019-02-20T16:06:01.283Z,54.53
2019-02-20T16:08:27.820Z,54.64
2019-02-20T16:10:55.297Z,54.74
2019-02-20T16:13:22.102Z,55.06
2019-02-20T16:15:48.658Z,54.91
2019-02-20T16:18:15.202Z,55.60
2019-02-20T16:20:41.765Z,55.29
2019-02-20T16:23:08.353Z,56.06
2019-02-20T16:25:34.911Z,55.83
2019-02-20T16:28:01.455Z,55.92
2019-02-20T16:30:28.005Z,55.88
2019-02-20T16:32:54.936Z,56.14
2019-02-20T16:35:21.504Z,56.41
2019-02-20T16:37:48.043Z,56.64
2019-02-20T16:40:14.611Z,56.92
2019-02-20T16:42:41.162Z,56.86
2019-02-20T16:45:14.538Z,56.93
2019-02-20T16:47:41.089Z,57.01
2019-02-20T16:50:07.948Z,57.24
2019-02-20T16:52:34.506Z,56.84
2019-02-20T16:55:01.072Z,56.76
2019-02-20T16:57:27.610Z,56.80
2019-02-20T16:59:56.598Z,56.93
2019-02-20T17:02:23.132Z,56.75
2019-02-20T17:04:49.681Z,57.01
2019-02-20T17:07:16.232Z,57.21
2019-02-20T17:09:43.071Z,57.30
2019-02-20T17:12:09.627Z,57.11
2019-02-20T17:14:36.643Z,57.15
2019-02-20T17:17:03.612Z,57.23
2019-02-20T17:19:30.146Z,57.62
2019-02-20T17:21:56.725Z,57.68
2019-02-20T17:24:23.265Z,57.49
2019-02-20T17:26:49.822Z,57.40
2019-02-20T17:29:16.750Z,57.55
2019-02-20T17:31:43.295Z,57.58
2019-02-20T17:34:12.144Z,58.27
2019-02-20T17:36:38.711Z,58.33
2019-02-20T17:39:07.320Z,58.18
2019-02-20T17:41:34.077Z,58.52
2019-02-20T17:44:00.623Z,58.25
2019-02-20T17:46:27.175Z,58.63
2019-02-20T17:48:53.920Z,59.07
2019-02-20T17:51:20.461Z,58.64
2019-02-20T17:53:47.009Z,59.08
2019-02-20T17:56:13.569Z,59.07
2019-02-20T17:58:40.122Z,58.87
2019-02-20T18:01:10.005Z,59.06
2019-02-20T18:03:36.916Z,59.49
2019-02-20T18:06:03.526Z,59.91
2019-02-20T18:08:30.077Z,59.74
2019-02-20T18:10:56.624Z,60.04
2019-02-20T18:13:23.180Z,60.71
2019-02-20T18:15:49.733Z,60.79
2019-02-20T18:18:16.291Z,61.76
2019-02-20T18:20:43.437Z,62.70
2019-02-20T18:23:10.113Z,63.10
2019-02-20T18:25:36.653Z,63.33
2019-02-20T18:28:03.205Z,63.57
2019-02-20T18:30:31.703Z,63.70
2019-02-20T18:32:58.216Z,62.81
2019-02-20T18:35:24.748Z,62.78
2019-02-20T18:37:51.301Z,62.89
2019-02-20T18:40:17.838Z,63.74
2019-02-20T18:42:44.460Z,64.17
2019-02-20T18:45:11.073Z,64.66
2019-02-20T18:47:37.606Z,65.06
2019-02-20T18:50:04.818Z,65.26
2019-02-20T18:52:31.381Z,65.73
2019-02-20T18:55:05.548Z,65.82
2019-02-20T18:57:26.373Z,65.92
2019-02-20T18:59:52.911Z,65.96
2019-02-20T19:02:19.472Z,66.20
2019-02-20T19:04:45.997Z,66.21
2019-02-20T19:07:12.792Z,66.12
2019-02-20T19:09:41.067Z,65.42
2019-02-20T19:12:33.230Z,64.98
2019-02-20T19:15:40.679Z,64.04
2019-02-20T19:18:30.668Z,64.21
2019-02-20T19:21:25.432Z,64.50
2019-02-20T19:24:49.135Z,63.86
2019-02-20T19:27:42.517Z,64.16
2019-02-20T19:31:00.025Z,64.09
2019-02-20T19:33:51.757Z,64.67
2019-02-20T19:37:09.406Z,64.94
2019-02-20T19:40:12.262Z,65.81
2019-02-20T19:42:47.319Z,66.62
2019-02-20T19:45:26.313Z,66.65
2019-02-20T19:48:30.953Z,66.06
2019-02-20T19:51:10.588Z,66.40
2019-02-20T19:54:24.933Z,65.25
2019-02-20T19:57:42.395Z,65.29
2019-02-20T20:01:00.110Z,65.63
2019-02-20T20:03:59.250Z,66.33
2019-02-20T20:06:58.610Z,67.00
2019-02-20T20:09:53.675Z,66.79
2019-02-20T20:12:37.268Z,67.44
2019-02-20T20:15:31.996Z,67.79
2019-02-20T20:18:41.339Z,67.92
2019-02-20T20:21:32.714Z,66.44
2019-02-20T20:24:27.323Z,67.06
2019-02-20T20:27:48.337Z,66.42
2019-02-20T20:30:37.197Z,67.49
2019-02-20T20:33:46.064Z,67.39
2019-02-20T20:36:53.264Z,66.73
2019-02-20T20:40:02.294Z,65.81
2019-02-20T20:42:44.441Z,66.22
2019-02-20T20:45:50.277Z,66.20
2019-02-20T20:49:06.771Z,66.67
2019-02-20T20:52:14.254Z,66.91
2019-02-20T20:55:10.773Z,67.24
2019-02-20T20:58:19.941Z,66.58
2019-02-20T21:01:25.840Z,66.71
2019-02-20T21:04:01.924Z,66.59
2019-02-20T21:07:13.599Z,66.33
2019-02-20T21:10:23.692Z,66.32
2019-02-20T21:13:21.151Z,66.37
2019-02-20T21:16:35.776Z,65.96
2019-02-20T21:19:31.375Z,66.32
2019-02-20T21:22:27.572Z,66.62
2019-02-20T21:25:39.626Z,67.22
2019-02-20T21:28:16.932Z,67.14
2019-02-20T21:31:00.085Z,67.23
2019-02-20T21:34:10.640Z,66.47
2019-02-20T21:37:01.668Z,66.88
2019-02-20T21:39:50.415Z,66.95
2019-02-20T21:43:08.114Z,67.62
2019-02-20T21:45:51.100Z,67.87
2019-02-20T21:48:50.490Z,67.02
2019-02-20T21:51:31.664Z,66.46
2019-02-20T21:54:27.302Z,67.84
2019-02-20T21:57:14.602Z,68.51
2019-02-20T22:00:08.443Z,68.76
2019-02-20T22:02:58.145Z,68.99
2019-02-20T22:06:12.828Z,69.18
2019-02-20T22:09:20.337Z,69.52
2019-02-20T22:11:56.910Z,68.81
2019-02-20T22:14:41.739Z,69.13
2019-02-20T22:17:47.579Z,70.00
2019-02-20T22:20:59.221Z,69.05
2019-02-20T22:23:34.242Z,69.93
2019-02-20T22:26:19.460Z,70.51
2019-02-20T22:29:37.185Z,69.87
2019-02-20T22:32:39.168Z,69.80
2019-02-20T22:35:39.160Z,69.13
2019-02-20T22:38:48.308Z,69.68
2019-02-20T22:41:37.626Z,70.03
2019-02-20T22:44:49.632Z,69.63
2019-02-20T22:47:41.250Z,70.32
2019-02-20T22:50:49.140Z,71.00
2019-02-20T22:53:50.937Z,71.41
2019-02-20T22:56:41.425Z,71.36
2019-02-20T22:59:37.489Z,71.21
2019-02-20T23:02:46.487Z,71.71
2019-02-20T23:05:44.076Z,72.51
2019-02-20T23:08:29.284Z,73.18
2019-02-20T23:11:43.830Z,72.97
2019-02-20T23:14:32.565Z,73.05
2019-02-20T23:16:59.119Z,73.47
2019-02-20T23:19:25.675Z,72.48
2019-02-20T23:21:52.234Z,71.51
2019-02-20T23:24:18.785Z,70.77
2019-02-20T23:26:45.345Z,70.79
2019-02-20T23:29:11.873Z,71.04
2019-02-20T23:31:38.432Z,70.75
2019-02-20T23:34:04.965Z,70.22
2019-02-20T23:36:31.543Z,70.05
2019-02-20T23:38:58.089Z,71.17
2019-02-20T23:41:24.622Z,71.49
2019-02-20T23:43:51.180Z,72.16
2019-02-20T23:46:17.709Z,71.74
2019-02-20T23:48:44.323Z,71.23
2019-02-20T23:51:10.804Z,71.65
2019-02-20T23:53:37.354Z,72.22
2019-02-20T23:56:04.192Z,72.24
2019-02-20T23:58:30.754Z,72.42
